createdAt,value
2022-11-03T00:01:47.343Z,60.99
2022-11-03T00:04:17.169Z,60.92
2022-11-03T00:06:47.809Z,60.88
2022-11-03T00:09:17.490Z,60.89
2022-11-03T00:11:46.387Z,60.92
2022-11-03T00:14:14.968Z,61.19
2022-11-03T00:16:41.985Z,61.00
2022-11-03T00:19:10.532Z,61.03
2022-11-03T00:21:38.201Z,61.07
2022-11-03T00:24:05.709Z,61.18
2022-11-03T00:26:34.612Z,61.32
2022-11-03T00:29:10.740Z,61.50
2022-11-03T00:31:40.372Z,61.41
2022-11-03T00:34:08.218Z,61.42
2022-11-03T00:36:38.506Z,61.31
2022-11-03T00:39:06.458Z,61.63
2022-11-03T00:41:33.863Z,61.54
2022-11-03T00:44:00.840Z,61.30
2022-11-03T00:46:30.239Z,61.64
2022-11-03T00:48:57.126Z,61.49
2022-11-03T00:51:27.710Z,61.33
2022-11-03T00:53:57.542Z,61.53
2022-11-03T00:56:26.554Z,61.24
2022-11-03T00:58:54.798Z,61.39
2022-11-03T01:01:27.948Z,61.44
2022-11-03T01:04:15.710Z,61.34
2022-11-03T01:06:53.653Z,61.14
2022-11-03T01:09:36.442Z,61.33
2022-11-03T01:12:17.199Z,61.46
2022-11-03T01:14:53.994Z,61.58
2022-11-03T01:17:24.284Z,61.48
2022-11-03T01:19:51.891Z,61.57
2022-11-03T01:22:20.408Z,61.51
2022-11-03T01:24:47.606Z,61.52
2022-11-03T01:27:18.516Z,61.89
2022-11-03T01:29:45.397Z,61.64
2022-11-03T01:32:12.402Z,61.54
2022-11-03T01:34:39.897Z,61.98
2022-11-03T01:37:07.345Z,61.70
2022-11-03T01:39:34.484Z,61.83
2022-11-03T01:42:01.520Z,61.77
2022-11-03T01:44:37.534Z,61.68
2022-11-03T01:47:31.761Z,61.76
2022-11-03T01:50:12.038Z,61.78
2022-11-03T01:52:58.895Z,61.75
2022-11-03T01:55:36.356Z,61.76
2022-11-03T01:58:10.862Z,62.24
2022-11-03T02:00:40.470Z,62.32
2022-11-03T02:03:07.745Z,62.43
2022-11-03T02:05:35.439Z,62.66
2022-11-03T02:08:12.536Z,62.90
2022-11-03T02:10:39.428Z,62.99
2022-11-03T02:13:16.709Z,63.23
2022-11-03T02:15:44.606Z,63.36
2022-11-03T02:18:12.625Z,63.30
2022-11-03T02:20:41.674Z,63.36
2022-11-03T02:23:43.692Z,63.25
2022-11-03T02:26:11.921Z,63.09
2022-11-03T02:28:38.842Z,63.22
2022-11-03T02:31:19.729Z,63.44
2022-11-03T02:34:08.126Z,63.41
2022-11-03T02:36:47.655Z,63.19
2022-11-03T02:39:30.113Z,63.19
2022-11-03T02:41:59.738Z,63.19
2022-11-03T02:44:28.358Z,63.10
2022-11-03T02:47:00.975Z,62.68
2022-11-03T02:49:27.978Z,62.79
2022-11-03T02:52:02.644Z,62.84
2022-11-03T02:54:36.290Z,62.79
2022-11-03T02:57:10.087Z,62.27
2022-11-03T02:59:50.662Z,62.42
2022-11-03T03:02:24.522Z,62.54
2022-11-03T03:04:58.109Z,62.49
2022-11-03T03:07:41.607Z,62.44
2022-11-03T03:10:13.076Z,62.48
2022-11-03T03:12:48.739Z,62.46
2022-11-03T03:15:18.924Z,62.26
2022-11-03T03:18:00.230Z,61.78
2022-11-03T03:20:34.609Z,61.83
2022-11-03T03:23:26.825Z,61.71
2022-11-03T03:26:05.244Z,61.84
2022-11-03T03:28:50.199Z,61.52
2022-11-03T03:31:19.398Z,61.77
2022-11-03T03:33:48.898Z,61.92
2022-11-03T03:36:18.441Z,61.86
2022-11-03T03:38:50.978Z,61.29
2022-11-03T03:41:22.045Z,61.71
2022-11-03T03:43:56.103Z,61.63
2022-11-03T03:46:27.092Z,61.56
2022-11-03T03:48:54.064Z,61.45
2022-11-03T03:51:25.484Z,61.50
2022-11-03T03:53:54.451Z,61.57
2022-11-03T03:56:31.844Z,61.56
2022-11-03T03:58:58.862Z,61.46
2022-11-03T04:01:25.928Z,61.60
2022-11-03T04:03:52.894Z,61.57
2022-11-03T04:06:19.767Z,61.69
2022-11-03T04:08:46.650Z,61.55
2022-11-03T04:11:32.071Z,61.90
2022-11-03T04:14:17.580Z,61.94
2022-11-03T04:17:03.056Z,61.96
2022-11-03T04:19:48.430Z,61.83
2022-11-03T04:22:18.173Z,61.85
2022-11-03T04:24:51.642Z,61.95
2022-11-03T04:27:37.110Z,61.87
2022-11-03T04:30:09.922Z,62.13
2022-11-03T04:32:37.608Z,62.03
2022-11-03T04:35:26.684Z,61.91
2022-11-03T04:38:16.921Z,62.04
2022-11-03T04:40:54.609Z,62.24
2022-11-03T04:43:29.962Z,62.16
2022-11-03T04:45:56.854Z,62.08
2022-11-03T04:48:25.030Z,62.17
2022-11-03T04:50:58.622Z,61.91
2022-11-03T04:53:31.342Z,62.03
2022-11-03T04:56:01.532Z,62.18
2022-11-03T04:58:36.202Z,62.02
2022-11-03T05:01:04.315Z,62.29
2022-11-03T05:03:36.228Z,62.35
2022-11-03T05:06:13.968Z,62.20
2022-11-03T05:08:43.118Z,62.13
2022-11-03T05:11:21.855Z,62.34
2022-11-03T05:13:49.258Z,62.25
2022-11-03T05:16:16.757Z,62.54
2022-11-03T05:18:47.030Z,62.41
2022-11-03T05:21:18.437Z,62.29
2022-11-03T05:23:50.953Z,62.29
2022-11-03T05:26:35.730Z,62.02
2022-11-03T05:29:22.386Z,62.25
2022-11-03T05:31:52.432Z,62.03
2022-11-03T05:34:41.527Z,61.96
2022-11-03T05:37:27.503Z,62.16
2022-11-03T05:40:19.580Z,61.99
2022-11-03T05:42:59.238Z,61.77
2022-11-03T05:45:37.526Z,62.02
2022-11-03T05:48:35.694Z,62.03
2022-11-03T05:51:38.112Z,62.18
2022-11-03T05:54:10.083Z,61.92
2022-11-03T05:56:36.967Z,62.18
2022-11-03T05:59:05.106Z,62.03
2022-11-03T06:01:36.583Z,62.05
2022-11-03T06:04:29.561Z,62.16
2022-11-03T06:07:03.072Z,62.32
2022-11-03T06:09:33.756Z,62.49
2022-11-03T06:12:05.582Z,62.57
2022-11-03T06:14:33.204Z,62.44
2022-11-03T06:17:07.301Z,62.51
2022-11-03T06:19:50.772Z,62.82
2022-11-03T06:22:36.450Z,62.72
2022-11-03T06:25:23.003Z,62.90
2022-11-03T06:27:50.647Z,63.23
2022-11-03T06:30:29.469Z,63.05
2022-11-03T06:33:00.763Z,62.93
2022-11-03T06:35:28.033Z,62.94
2022-11-03T06:37:57.831Z,63.25
2022-11-03T06:40:34.970Z,63.22
2022-11-03T06:43:24.788Z,63.26
2022-11-03T06:45:55.863Z,63.04
2022-11-03T06:48:28.913Z,63.35
2022-11-03T06:50:58.224Z,63.13
2022-11-03T06:53:32.071Z,63.30
2022-11-03T06:55:59.858Z,63.29
2022-11-03T06:58:35.018Z,63.31
2022-11-03T07:01:16.876Z,63.15
2022-11-03T07:03:44.340Z,63.34
2022-11-03T07:06:11.101Z,63.31
2022-11-03T07:08:43.542Z,63.48
2022-11-03T07:11:16.446Z,63.25
2022-11-03T07:13:44.426Z,63.36
2022-11-03T07:16:20.143Z,63.01
2022-11-03T07:18:47.730Z,63.02
2022-11-03T07:21:31.463Z,63.12
2022-11-03T07:24:02.611Z,62.78
2022-11-03T07:26:29.506Z,63.12
2022-11-03T07:28:56.471Z,63.00
2022-11-03T07:31:26.080Z,63.25
2022-11-03T07:33:59.578Z,63.18
2022-11-03T07:36:31.652Z,63.02
2022-11-03T07:39:01.486Z,63.11
2022-11-03T07:41:34.290Z,63.09
2022-11-03T07:44:02.540Z,62.69
2022-11-03T07:46:29.526Z,62.90
2022-11-03T07:49:04.501Z,62.44
2022-11-03T07:51:37.779Z,62.18
2022-11-03T07:54:16.106Z,61.88
2022-11-03T07:56:48.375Z,61.83
2022-11-03T07:59:27.836Z,62.10
2022-11-03T08:01:57.319Z,61.41
2022-11-03T08:04:34.349Z,61.48
2022-11-03T08:07:01.248Z,61.22
2022-11-03T08:09:28.124Z,61.16
2022-11-03T08:11:54.995Z,60.73
2022-11-03T08:14:21.892Z,60.81
2022-11-03T08:16:48.803Z,60.47
2022-11-03T08:19:15.667Z,60.55
2022-11-03T08:21:42.546Z,60.77
2022-11-03T08:24:09.442Z,60.80
2022-11-03T08:26:36.353Z,60.79
2022-11-03T08:29:03.377Z,60.59
2022-11-03T08:31:30.330Z,60.32
2022-11-03T08:33:57.256Z,60.08
2022-11-03T08:36:24.419Z,60.24
2022-11-03T08:38:51.281Z,59.78
2022-11-03T08:41:18.158Z,58.91
2022-11-03T08:43:45.017Z,59.34
2022-11-03T08:46:17.536Z,58.75
2022-11-03T08:48:46.149Z,58.39
2022-11-03T08:51:14.910Z,59.17
2022-11-03T08:53:42.992Z,58.50
2022-11-03T08:56:12.829Z,58.73
2022-11-03T08:58:41.362Z,58.77
2022-11-03T09:01:08.280Z,58.22
2022-11-03T09:03:35.398Z,58.49
2022-11-03T09:06:02.385Z,58.41
2022-11-03T09:11:16.144Z,58.33
2022-11-03T09:13:43.004Z,58.32
2022-11-03T09:16:09.874Z,58.08
2022-11-03T09:18:37.347Z,58.34
2022-11-03T09:21:04.309Z,58.29
2022-11-03T09:23:31.188Z,58.39
2022-11-03T09:25:58.086Z,58.34
2022-11-03T09:28:24.972Z,57.71
2022-11-03T09:30:51.912Z,57.11
2022-11-03T09:33:18.795Z,56.81
2022-11-03T09:35:45.703Z,56.31
2022-11-03T09:38:12.584Z,55.45
2022-11-03T09:40:39.551Z,55.34
2022-11-03T09:43:06.792Z,55.04
2022-11-03T09:45:33.945Z,54.34
2022-11-03T09:48:01.721Z,54.63
2022-11-03T09:50:28.616Z,54.74
2022-11-03T09:52:57.482Z,54.62
2022-11-03T09:55:26.478Z,54.04
2022-11-03T09:58:00.731Z,54.35
2022-11-03T10:00:27.977Z,54.68
2022-11-03T10:02:55.773Z,54.00
2022-11-03T10:05:31.731Z,52.99
2022-11-03T10:08:05.862Z,53.85
2022-11-03T10:10:34.298Z,53.62
2022-11-03T10:13:01.970Z,53.70
2022-11-03T10:15:29.231Z,53.87
2022-11-03T10:17:56.751Z,53.37
2022-11-03T10:20:24.080Z,53.20
2022-11-03T10:22:55.120Z,53.48
2022-11-03T10:25:48.246Z,53.00
2022-11-03T10:28:20.571Z,53.14
2022-11-03T10:31:14.533Z,53.29
2022-11-03T10:33:53.016Z,52.64
2022-11-03T10:36:22.238Z,52.06
2022-11-03T10:38:49.151Z,51.52
2022-11-03T10:41:21.630Z,51.63
2022-11-03T10:44:11.261Z,51.59
2022-11-03T10:46:55.013Z,51.19
2022-11-03T10:49:22.076Z,51.46
2022-11-03T10:51:52.506Z,51.09
2022-11-03T10:54:22.877Z,51.25
2022-11-03T10:56:51.975Z,51.48
2022-11-03T10:59:31.413Z,51.49
2022-11-03T11:02:00.106Z,51.25
2022-11-03T11:04:27.292Z,50.63
2022-11-03T11:06:54.510Z,50.99
2022-11-03T11:09:28.159Z,50.21
2022-11-03T11:12:03.597Z,50.06
2022-11-03T11:14:30.330Z,50.21
2022-11-03T11:17:01.087Z,49.55
2022-11-03T11:19:30.141Z,50.06
2022-11-03T11:21:56.893Z,50.05
2022-11-03T11:24:45.081Z,50.05
2022-11-03T11:27:36.677Z,49.24
2022-11-03T11:30:07.391Z,49.24
2022-11-03T11:32:37.292Z,48.95
2022-11-03T11:35:04.293Z,49.02
2022-11-03T11:37:31.037Z,49.01
2022-11-03T11:39:57.957Z,49.34
2022-11-03T11:44:58.195Z,48.39
2022-11-03T11:47:47.197Z,47.92
2022-11-03T11:50:27.812Z,48.16
2022-11-03T11:53:10.904Z,48.80
2022-11-03T11:55:57.840Z,48.61
2022-11-03T11:58:42.769Z,48.27
2022-11-03T12:01:32.778Z,48.47
2022-11-03T12:04:06.378Z,48.29
2022-11-03T12:06:38.030Z,48.92
2022-11-03T12:09:20.768Z,48.97
2022-11-03T12:11:55.623Z,48.73
2022-11-03T12:14:29.324Z,47.89
2022-11-03T12:16:57.639Z,48.39
2022-11-03T12:19:44.819Z,48.28
2022-11-03T12:22:23.725Z,48.49
2022-11-03T12:24:57.944Z,48.14
2022-11-03T12:27:24.705Z,48.54
2022-11-03T12:30:00.479Z,48.05
2022-11-03T12:32:33.588Z,48.29
2022-11-03T12:35:06.753Z,47.75
2022-11-03T12:37:33.639Z,48.78
2022-11-03T12:40:00.642Z,49.07
2022-11-03T12:42:27.734Z,49.00
2022-11-03T12:44:54.902Z,48.09
2022-11-03T12:47:21.798Z,48.63
2022-11-03T12:49:48.766Z,48.65
2022-11-03T12:52:15.753Z,48.69
2022-11-03T12:54:42.652Z,48.76
2022-11-03T12:57:09.570Z,48.71
2022-11-03T12:59:36.701Z,48.28
2022-11-03T13:02:04.009Z,48.49
2022-11-03T13:04:31.018Z,48.91
2022-11-03T13:06:57.926Z,48.72
2022-11-03T13:09:24.800Z,48.50
2022-11-03T13:12:10.536Z,49.26
2022-11-03T13:14:37.431Z,49.21
2022-11-03T13:17:04.537Z,48.95
2022-11-03T13:19:31.516Z,49.00
2022-11-03T13:21:58.438Z,48.90
2022-11-03T13:24:25.310Z,49.19
2022-11-03T13:26:52.202Z,49.18
2022-11-03T13:29:19.064Z,49.12
2022-11-03T13:31:45.932Z,49.31
2022-11-03T13:34:12.836Z,49.26
2022-11-03T13:36:39.859Z,48.96
2022-11-03T13:39:06.724Z,49.42
2022-11-03T13:41:33.602Z,49.13
2022-11-03T13:44:00.474Z,49.40
2022-11-03T13:46:27.360Z,49.30
2022-11-03T13:49:45.007Z,49.40
2022-11-03T13:51:41.238Z,49.21
2022-11-03T13:59:42.737Z,48.81
2022-11-03T14:04:57.738Z,48.80
2022-11-03T14:07:24.615Z,48.58
2022-11-03T14:09:51.490Z,48.72
2022-11-03T14:12:34.654Z,48.53
2022-11-03T14:15:05.800Z,48.77
2022-11-03T14:17:33.011Z,48.95
2022-11-03T14:20:04.092Z,49.35
2022-11-03T14:22:32.411Z,49.40
2022-11-03T14:24:59.552Z,49.63
2022-11-03T14:27:26.532Z,49.81
2022-11-03T14:29:53.569Z,50.29
2022-11-03T14:32:20.871Z,50.18
2022-11-03T14:34:48.302Z,50.45
2022-11-03T14:37:15.470Z,50.71
2022-11-03T14:39:42.450Z,50.53
2022-11-03T14:42:16.501Z,51.04
2022-11-03T14:44:46.020Z,50.53
2022-11-03T14:47:17.850Z,50.89
2022-11-03T14:49:46.116Z,50.69
2022-11-03T14:52:14.223Z,50.64
2022-11-03T14:54:41.433Z,51.20
2022-11-03T14:57:09.590Z,51.03
2022-11-03T14:59:36.524Z,50.93
2022-11-03T15:02:04.679Z,51.12
2022-11-03T15:04:31.713Z,51.01
2022-11-03T15:06:58.658Z,51.09
2022-11-03T15:09:25.610Z,51.06
2022-11-03T15:11:52.560Z,51.41
2022-11-03T15:14:19.423Z,51.46
2022-11-03T15:16:46.356Z,51.57
2022-11-03T15:19:13.436Z,51.92
2022-11-03T15:21:40.341Z,51.96
2022-11-03T15:26:54.198Z,52.39
2022-11-03T15:29:22.893Z,52.38
2022-11-03T15:31:49.904Z,52.54
2022-11-03T15:34:16.797Z,52.76
2022-11-03T15:36:43.677Z,52.72
2022-11-03T15:39:10.544Z,52.69
2022-11-03T15:41:37.433Z,52.94
2022-11-03T15:44:04.333Z,53.00
2022-11-03T15:46:31.201Z,53.08
2022-11-03T15:48:58.107Z,53.37
2022-11-03T15:51:25.376Z,53.59
2022-11-03T15:53:57.756Z,53.49
2022-11-03T15:56:28.875Z,53.64
2022-11-03T15:58:56.285Z,53.68
2022-11-03T16:01:23.520Z,53.99
2022-11-03T16:03:50.629Z,54.01
2022-11-03T16:06:18.088Z,54.06
2022-11-03T16:08:45.098Z,54.20
2022-11-03T16:11:12.040Z,54.35
2022-11-03T16:13:39.587Z,54.47
2022-11-03T16:16:07.053Z,54.49
2022-11-03T16:18:34.630Z,54.41
2022-11-03T16:21:01.521Z,54.48
2022-11-03T16:23:28.383Z,54.46
2022-11-03T16:25:55.259Z,54.66
2022-11-03T16:28:23.178Z,54.61
2022-11-03T16:30:54.227Z,54.59
2022-11-03T16:33:21.984Z,54.55
2022-11-03T16:35:49.239Z,54.55
2022-11-03T16:38:16.116Z,54.53
2022-11-03T16:40:43.453Z,54.59
2022-11-03T16:43:10.812Z,54.84
2022-11-03T16:45:38.418Z,54.71
2022-11-03T16:48:06.758Z,54.60
2022-11-03T16:50:34.481Z,54.75
2022-11-03T16:53:01.457Z,54.47
2022-11-03T16:55:28.333Z,54.69
2022-11-03T16:57:55.200Z,54.57
2022-11-03T17:00:23.959Z,54.58
2022-11-03T17:02:51.579Z,54.71
2022-11-03T17:05:20.724Z,54.67
2022-11-03T17:07:53.279Z,54.74
2022-11-03T17:10:22.233Z,54.72
2022-11-03T17:12:49.903Z,54.72
2022-11-03T17:15:17.293Z,54.82
2022-11-03T17:17:44.287Z,55.06
2022-11-03T17:20:12.097Z,54.82
2022-11-03T17:22:39.424Z,54.95
2022-11-03T17:25:09.508Z,54.83
2022-11-03T17:27:51.998Z,54.85
2022-11-03T17:30:28.786Z,54.87
2022-11-03T17:33:00.380Z,55.01
2022-11-03T17:35:39.898Z,55.16
2022-11-03T17:38:13.856Z,55.03
2022-11-03T17:40:43.609Z,54.86
2022-11-03T17:43:20.439Z,55.06
2022-11-03T17:45:47.437Z,55.01
2022-11-03T17:48:14.629Z,55.00
2022-11-03T17:50:49.225Z,54.90
2022-11-03T17:53:32.014Z,55.10
2022-11-03T17:56:29.578Z,54.93
2022-11-03T17:58:48.370Z,55.00
2022-11-03T18:01:23.274Z,55.03
2022-11-03T18:03:50.274Z,55.09
2022-11-03T18:06:20.056Z,55.16
2022-11-03T18:08:47.898Z,54.89
2022-11-03T18:11:39.678Z,55.25
2022-11-03T18:14:06.570Z,55.03
2022-11-03T18:16:34.600Z,55.16
2022-11-03T18:19:01.497Z,54.87
2022-11-03T18:21:29.954Z,54.80
2022-11-03T18:23:56.835Z,54.99
2022-11-03T18:26:25.978Z,54.86
2022-11-03T18:28:53.859Z,54.70
2022-11-03T18:31:33.866Z,54.78
2022-11-03T18:34:05.324Z,54.38
2022-11-03T18:36:34.208Z,54.59
2022-11-03T18:39:02.463Z,54.62
2022-11-03T18:41:36.243Z,54.54
2022-11-03T18:44:21.935Z,54.56
2022-11-03T18:46:51.448Z,54.36
2022-11-03T18:49:18.863Z,54.14
2022-11-03T18:52:02.034Z,54.12
2022-11-03T18:54:31.449Z,54.29
2022-11-03T18:56:58.577Z,53.99
2022-11-03T18:59:35.939Z,53.70
2022-11-03T19:02:03.102Z,53.68
2022-11-03T19:04:31.814Z,54.03
2022-11-03T19:06:58.737Z,53.26
2022-11-03T19:09:26.886Z,53.59
2022-11-03T19:11:57.391Z,53.57
2022-11-03T19:14:31.927Z,53.54
2022-11-03T19:17:22.317Z,53.46
2022-11-03T19:19:50.121Z,53.73
2022-11-03T19:22:20.668Z,53.71
2022-11-03T19:24:47.539Z,53.97
2022-11-03T19:27:36.815Z,53.89
2022-11-03T19:30:05.557Z,53.79
2022-11-03T19:32:41.734Z,53.63
2022-11-03T19:35:29.456Z,53.96
2022-11-03T19:38:11.540Z,54.05
2022-11-03T19:40:39.495Z,54.12
2022-11-03T19:43:09.728Z,54.52
2022-11-03T19:45:36.595Z,54.13
2022-11-03T19:50:53.108Z,54.35
2022-11-03T19:53:24.232Z,54.38
2022-11-03T19:55:51.149Z,54.58
2022-11-03T19:58:21.517Z,54.54
2022-11-03T20:00:49.752Z,54.70
2022-11-03T20:03:17.092Z,55.08
2022-11-03T20:05:49.308Z,54.74
2022-11-03T20:08:21.164Z,55.11
2022-11-03T20:10:48.546Z,55.04
2022-11-03T20:13:18.449Z,55.23
2022-11-03T20:15:45.525Z,55.20
2022-11-03T20:18:13.350Z,55.37
2022-11-03T20:20:42.945Z,55.32
2022-11-03T20:23:26.617Z,55.41
2022-11-03T20:25:54.518Z,55.33
2022-11-03T20:28:29.981Z,55.23
2022-11-03T20:31:01.045Z,55.34
2022-11-03T20:33:28.086Z,55.20
2022-11-03T20:35:55.393Z,55.37
2022-11-03T20:38:24.947Z,55.50
2022-11-03T20:40:58.310Z,55.15
2022-11-03T20:43:28.285Z,55.26
2022-11-03T20:45:56.311Z,55.33
2022-11-03T20:48:23.773Z,55.26
2022-11-03T20:50:51.920Z,55.38
2022-11-03T20:53:23.104Z,55.43
2022-11-03T20:55:50.944Z,55.28
2022-11-03T20:58:18.465Z,55.33
2022-11-03T21:00:47.504Z,55.33
2022-11-03T21:06:16.566Z,55.26
2022-11-03T21:08:45.617Z,55.35
2022-11-03T21:11:26.931Z,55.23
2022-11-03T21:14:02.794Z,55.45
2022-11-03T21:16:49.409Z,55.33
2022-11-03T21:19:58.426Z,55.35
2022-11-03T21:22:53.256Z,55.02
2022-11-03T21:25:22.277Z,55.31
2022-11-03T21:27:49.702Z,55.61
2022-11-03T21:30:18.032Z,55.39
2022-11-03T21:32:45.047Z,55.21
2022-11-03T21:35:19.647Z,55.59
2022-11-03T21:37:47.189Z,55.79
2022-11-03T21:40:14.296Z,55.54
2022-11-03T21:42:59.435Z,55.70
2022-11-03T21:45:26.851Z,55.78
2022-11-03T21:48:14.322Z,56.04
2022-11-03T21:50:42.905Z,56.04
2022-11-03T21:53:10.919Z,55.99
2022-11-03T21:55:38.357Z,55.92
2022-11-03T21:58:05.294Z,56.34
2022-11-03T22:00:32.947Z,56.44
2022-11-03T22:03:00.791Z,56.50
2022-11-03T22:05:27.806Z,56.57
2022-11-03T22:07:54.683Z,56.73
2022-11-03T22:10:21.865Z,56.80
2022-11-03T22:12:48.745Z,56.93
2022-11-03T22:15:34.223Z,56.90
2022-11-03T22:18:06.297Z,56.87
2022-11-03T22:20:52.642Z,57.08
2022-11-03T22:23:38.482Z,57.09
2022-11-03T22:26:23.893Z,57.17
2022-11-03T22:29:10.701Z,57.57
2022-11-03T22:31:43.279Z,57.52
2022-11-03T22:34:29.057Z,57.53
2022-11-03T22:36:56.022Z,57.75
2022-11-03T22:39:41.450Z,57.51
2022-11-03T22:42:30.324Z,57.59
2022-11-03T22:45:16.109Z,57.88
2022-11-03T22:47:42.992Z,57.73
2022-11-03T22:50:09.948Z,57.67
2022-11-03T22:52:36.858Z,57.98
2022-11-03T22:55:04.143Z,57.78
2022-11-03T22:57:31.025Z,57.82
2022-11-03T22:59:57.912Z,58.06
2022-11-03T23:02:24.897Z,57.75
2022-11-03T23:04:51.863Z,58.05
2022-11-03T23:07:18.740Z,58.03
2022-11-03T23:09:45.854Z,58.03
2022-11-03T23:12:12.771Z,57.80
2022-11-03T23:14:58.293Z,57.81
2022-11-03T23:17:45.132Z,57.88
2022-11-03T23:20:30.888Z,57.72
2022-11-03T23:22:57.793Z,57.86
2022-11-03T23:25:24.664Z,57.71
2022-11-03T23:27:53.004Z,57.94
2022-11-03T23:30:19.870Z,57.99
2022-11-03T23:32:46.761Z,58.03
2022-11-03T23:35:14.617Z,58.33
2022-11-03T23:37:41.546Z,58.36
2022-11-03T23:40:09.129Z,58.73
2022-11-03T23:42:36.090Z,58.82
2022-11-03T23:45:21.702Z,58.85
2022-11-03T23:48:07.654Z,58.82
2022-11-03T23:50:34.671Z,58.79
2022-11-03T23:53:01.573Z,59.21
2022-11-03T23:55:48.985Z,59.09
2022-11-03T23:58:18.805Z,59.47
